Latest Weather Observations for Cowra

IDN60801

Issued at 1:13 pm EDT Monday 26 October 2020 (issued every 10 minutes, with the page automatically refreshed every 10 minutes)

About weather observations | Map of weather stations | Latest weather observations for NSW | Other Formats
Station Details ID: 065111 Name: COWRA AIRPORT AWS Lat: -33.84 Lon: 148.65 Height: 300.4 m
Data from the previous 72 hours. | See also: Recent months at Cowra
Date/Time
EDT
Temp
°C
App
Temp
°C
Dew
Point
°C
Rel
Hum
%
Delta-T
°C
Wind Press
QNH
hPa
Press
MSL
hPa
Rain since
9am
mm
Dir  Spd
km/h
Gust
km/h
Spd
kts
Gust
kts
26/01:00pm 16.5 12.4 8.5 59 4.1 ESE 20 32 11 17 1017.3 1016.8 0.0
26/12:30pm 16.5 12.0 8.5 59 4.1 ESE 22 41 12 22 1017.2 1016.7 0.0
26/12:00pm 17.5 12.2 8.6 56 4.6 ESE 26 43 14 23 1017.2 1016.7 0.0
26/11:45am 16.7 10.9 8.1 57 4.4 ESE 28 46 15 25 1017.3 1016.8 0.0
26/11:30am 16.2 10.8 7.9 58 4.2 ESE 26 46 14 25 1017.5 1017.0 0.0
26/11:01am 16.2 10.0 7.7 57 4.3 ESE 30 54 16 29 1017.6 1017.1 0.0
26/11:00am 16.7 10.7 8.7 59 4.2 ESE 30 44 16 24 1017.6 1017.1 0.0
26/10:48am 15.9 10.1 7.9 59 4.1 ESE 28 46 15 25 1017.6 1017.1 0.0
26/10:30am 15.0 9.9 7.8 62 3.6 ESE 24 37 13 20 1017.7 1017.2 0.0
26/10:01am 14.5 8.4 6.8 60 3.8 ESE 28 50 15 27 1017.6 1017.1 0.0
26/10:00am 14.5 8.9 7.3 62 3.6 ESE 26 46 14 25 1017.6 1017.1 0.0
26/09:49am 14.7 8.8 7.3 61 3.7 ESE 28 48 15 26 1017.6 1017.1 0.0
26/09:30am 14.3 9.4 8.3 67 3.1 SE 24 41 13 22 1017.3 1016.8 0.0
26/09:00am 13.1 9.9 8.6 74 2.3 SE 15 24 8 13 1017.4 1016.9 8.4
26/08:30am 12.2 8.5 8.1 76 2.0 SE 17 35 9 19 1017.1 1016.6 8.4
26/08:00am 11.2 6.8 7.5 78 1.8 SE 20 32 11 17 1016.7 1016.3 8.4
26/07:30am 11.4 7.2 7.5 77 1.9 ESE 19 41 10 22 1016.8 1016.4 8.4
26/07:00am 10.8 7.2 8.2 84 1.3 ESE 17 33 9 18 1016.2 1015.7 8.4
26/06:30am 10.4 7.0 9.0 91 0.7 SE 17 26 9 14 1015.5 1015.0 7.6
26/06:00am 10.7 8.0 9.1 90 0.8 SE 13 24 7 13 1015.5 1015.0 7.2
26/05:30am 10.9 8.4 9.8 93 0.6 SSE 13 20 7 11 1015.2 1014.7 7.0
26/05:00am 11.5 7.5 9.2 86 1.2 ESE 20 35 11 19 1015.0 1014.5 6.8
26/04:30am 12.2 8.2 8.9 80 1.7 SE 20 35 11 19 1014.5 1014.0 6.6
26/04:00am 12.9 9.1 9.2 78 1.9 SE 19 33 10 18 1014.6 1014.1 6.4
26/03:30am 12.4 10.0 10.0 85 1.2 SSE 13 17 7 9 1014.6 1014.1 6.4
26/03:00am 12.4 10.8 10.1 86 1.2 SSE 9 17 5 9 1014.5 1014.0 6.4
26/02:30am 12.5 10.4 9.9 84 1.4 SSE 11 19 6 10 1014.5 1014.0 6.2
26/02:00am 12.6 10.5 9.6 82 1.6 SE 11 17 6 9 1014.8 1014.3 6.2
26/01:30am 12.7 10.5 9.5 81 1.7 SE 11 17 6 9 1015.2 1014.7 6.2
26/01:00am 12.4 9.8 9.4 82 1.5 SSE 13 20 7 11 1015.5 1015.0 6.2
26/12:30am 12.2 10.6 10.1 87 1.1 SE 9 13 5 7 1015.8 1015.3 6.2
26/12:00am 11.9 9.9 10.1 89 0.9 SSE 11 17 6 9 1015.8 1015.3 6.2
 
Date/Time
EDT
Temp
°C
App
Temp
°C
Dew
Point
°C
Rel
Hum
%
Delta-T
°C
Wind Press
QNH
hPa
Press
MSL
hPa
Rain since
9am
mm
Dir  Spd
km/h
Gust
km/h
Spd
kts
Gust
kts
25/11:30pm 11.9 9.9 10.3 90 0.8 SE 11 20 6 11 1016.0 1015.5 6.2
25/11:00pm 11.8 9.5 10.4 91 0.7 SE 13 20 7 11 1016.0 1015.5 6.2
25/10:30pm 11.7 9.5 10.8 94 0.5 SE 13 24 7 13 1016.2 1015.7 6.2
25/10:00pm 11.4 9.7 11.2 99 0.1 SE 11 19 6 10 1016.2 1015.7 6.2
25/09:30pm 11.4 9.3 11.2 99 0.1 SSE 13 19 7 10 1016.1 1015.6 6.2
25/09:00pm 11.3 10.0 11.1 99 0.1 S 9 13 5 7 1016.2 1015.7 6.2
25/08:30pm 11.3 10.0 11.1 99 0.1 SSW 9 11 5 6 1016.0 1015.5 6.2
25/08:00pm 11.2 10.8 11.0 99 0.1 SE 4 9 2 5 1015.8 1015.3 5.4
25/07:30pm 11.4 10.5 11.2 99 0.1 ESE 7 13 4 7 1015.8 1015.3 3.2
25/07:00pm 11.4 9.3 11.1 98 0.2 SE 13 17 7 9 1015.0 1014.5 3.0
25/06:30pm 11.4 8.5 10.9 97 0.3 SE 17 28 9 15 1014.4 1013.9 3.0
25/06:00pm 11.7 8.9 11.4 98 0.2 SE 17 30 9 16 1014.2 1013.7 2.8
25/05:30pm 11.8 8.6 11.3 97 0.3 SE 19 30 10 16 1013.9 1013.4 2.8
25/05:00pm 12.3 8.8 11.0 92 0.7 SE 20 32 11 17 1013.6 1013.0 2.2
25/04:30pm 12.6 9.4 11.3 92 0.7 SE 19 28 10 15 1013.2 1012.7 2.2
25/04:00pm 13.0 9.2 11.2 89 1.0 SE 22 35 12 19 1012.7 1012.2 2.2
25/03:30pm 13.1 9.9 11.8 92 0.7 SE 20 35 11 19 1012.6 1012.1 2.2
25/03:00pm 13.3 9.7 11.9 91 0.8 SE 22 33 12 18 1012.7 1012.2 2.2
25/02:30pm 14.1 11.3 12.7 91 0.8 SE 19 30 10 16 1012.6 1012.1 2.2
25/02:00pm 13.9 11.8 12.5 91 0.8 SE 15 20 8 11 1012.6 1012.1 2.2
25/01:30pm 14.2 12.7 13.1 93 0.6 SE 13 20 7 11 1012.4 1011.9 2.2
25/01:00pm 14.4 12.9 14.2 99 0.1 SE 15 20 8 11 1012.3 1011.8 2.2
25/12:30pm 14.2 13.8 14.0 99 0.1 SSE 9 13 5 7 1012.3 1011.8 2.2
25/12:00pm 13.8 13.6 13.6 99 0.1 S 7 9 4 5 1012.4 1011.9 2.0
25/11:30am 13.4 13.1 13.4 100 0.0 SSW 7 13 4 7 1012.4 1011.9 1.8
25/11:00am 12.9 12.4 12.7 99 0.1 SSW 7 11 4 6 1012.5 1012.0 0.4
25/10:30am 12.7 11.8 12.5 99 0.1 SW 9 11 5 6 1012.4 1011.9 0.0
25/10:00am 12.6 11.9 12.1 97 0.3 SSW 7 9 4 5 1012.3 1011.8 0.0
25/09:30am 12.2 11.5 12.0 99 0.1 SW 7 11 4 6 1012.0 1011.5 0.0
25/09:00am 12.1 11.4 11.9 99 0.1 SSW 7 11 4 6 1011.8 1011.3 27.0
25/08:30am 11.8 11.0 11.6 99 0.1 WSW 7 11 4 6 1011.6 1011.1 27.0
25/08:00am 11.8 10.6 11.6 99 0.1 WSW 9 11 5 6 1011.1 1010.6 27.0
25/07:30am 11.1 9.7 10.9 99 0.1 SW 9 13 5 7 1010.7 1010.1 27.0
25/07:00am 11.0 9.2 10.8 99 0.1 WSW 11 15 6 8 1010.5 1009.9 27.0
25/06:30am 10.9 9.8 10.7 99 0.1 W 7 11 4 6 1010.0 1009.4 27.0
25/06:00am 11.0 9.6 10.8 99 0.1 SW 9 13 5 7 1009.5 1009.0 27.0
25/05:30am 11.2 9.4 11.0 99 0.1 WSW 11 15 6 8 1009.2 1008.7 27.0
25/05:00am 11.6 11.6 11.1 97 0.3 W 2 11 1 6 1008.9 1008.4 27.0
25/04:30am 11.5 10.5 11.0 97 0.3 W 7 9 4 5 1008.5 1008.0 27.0
25/04:00am 11.7 10.7 11.1 96 0.3 W 7 9 4 5 1008.1 1007.6 26.8
25/03:30am 11.8 10.3 10.7 93 0.6 WSW 9 11 5 6 1007.6 1007.0 26.8
25/03:00am 11.9 9.7 10.8 93 0.6 WSW 13 19 7 10 1007.6 1007.0 26.8
25/02:30am 12.0 9.5 11.2 95 0.4 SW 15 20 8 11 1007.4 1006.8 26.8
25/02:00am 12.4 9.3 12.2 99 0.1 SW 20 26 11 14 1007.5 1006.9 26.8
25/01:30am 13.0 10.1 12.8 99 0.1 SW 20 28 11 15 1007.4 1006.8 26.8
25/01:00am 13.8 11.7 13.6 99 0.1 SW 17 20 9 11 1007.2 1006.6 26.8
25/12:30am 14.6 12.3 14.6 100 0.0 WSW 20 26 11 14 1007.2 1006.6 26.8
25/12:00am 16.0 16.9 16.0 100 0.0 W 6 13 3 7 1007.1 1006.5 26.8
 
Date/Time
EDT
Temp
°C
App
Temp
°C
Dew
Point
°C
Rel
Hum
%
Delta-T
°C
Wind Press
QNH
hPa
Press
MSL
hPa
Rain since
9am
mm
Dir  Spd
km/h
Gust
km/h
Spd
kts
Gust
kts
24/11:30pm 16.0 18.0 16.0 100 0.0 CALM 0 0 0 0 1007.0 1006.4 26.8
24/11:00pm 15.8 16.6 15.8 100 0.0 N 6 7 3 4 1007.0 1006.4 26.8
24/10:30pm 15.7 16.4 15.7 100 0.0 NNE 6 7 3 4 1006.9 1006.3 26.8
24/10:00pm 15.5 16.0 15.5 100 0.0 NNE 7 7 4 4 1006.8 1006.2 26.8
24/09:30pm 15.4 17.2 15.4 100 0.0 CALM 0 0 0 0 1006.2 1005.7 26.8
24/09:00pm 15.5 16.0 15.5 100 0.0 E 7 9 4 5 1005.7 1005.2 26.8
24/08:30pm 15.5 16.9 15.5 100 0.0 E 2 7 1 4 1005.2 1004.7 26.8
24/08:00pm 15.5 16.9 15.3 99 0.1 E 2 7 1 4 1004.5 1003.9 26.8
24/07:30pm 15.6 15.7 15.4 99 0.1 SSE 9 20 5 11 1004.4 1003.8 25.6
24/07:00pm 18.1 14.5 13.2 73 2.8 WSW 24 39 13 21 1003.9 1003.3 9.4
24/06:58pm 18.4 15.6 13.1 71 3.0 WSW 20 39 11 21 1003.8 1003.2 9.4
24/06:30pm 20.7 21.7 17.7 83 1.9 NNW 9 15 5 8 1003.0 1002.4 9.4
24/06:00pm 21.1 22.1 17.7 81 2.1 NNW 9 15 5 8 1002.1 1001.5 9.4
24/05:30pm 21.9 23.0 18.1 79 2.4 NNW 9 17 5 9 1002.5 1002.0 9.4
24/05:00pm 21.8 21.9 17.4 76 2.8 N 13 17 7 9 1002.2 1001.6 9.4
24/04:30pm 21.3 21.8 17.5 79 2.4 NNE 11 15 6 8 1002.5 1002.0 9.4
24/04:00pm 21.4 22.5 18.0 81 2.1 NNE 9 15 5 8 1002.5 1002.0 9.4
24/03:30pm 20.2 21.2 18.7 91 0.9 NNW 11 15 6 8 1002.8 1002.3 9.4
24/03:00pm 19.3 19.9 17.6 90 1.1 WNW 11 15 6 8 1003.3 1002.7 9.4
24/02:30pm 19.1 19.2 17.4 90 1.0 WNW 13 26 7 14 1003.7 1003.1 9.4
24/02:00pm 19.5 20.5 18.7 95 0.5 W 11 13 6 7 1003.8 1003.2 9.2
24/01:30pm 21.8 21.0 18.0 79 2.4 NNW 19 26 10 14 1003.6 1003.0 3.8
24/01:00pm 22.0 21.8 18.6 81 2.2 NW 17 26 9 14 1004.2 1003.6 3.8
24/12:30pm 20.5 20.0 18.6 89 1.2 NW 19 28 10 15 1004.8 1004.2 3.8
24/12:00pm 20.5 21.5 19.5 94 0.6 NNW 13 24 7 13 1005.3 1004.8 3.4
24/11:30am 19.6 20.0 19.1 97 0.3 NNW 15 24 8 13 1005.7 1005.2 3.4
24/11:00am 18.7 18.0 18.7 100 0.0 N 20 26 11 14 1005.8 1005.3 3.4
24/10:30am 18.6 19.2 18.6 100 0.0 N 13 24 7 13 1005.9 1005.4 1.6
24/10:00am 18.3 18.7 18.1 99 0.1 NNW 13 20 7 11 1006.0 1005.5 1.4
24/09:30am 18.6 19.1 18.4 99 0.1 NNW 13 20 7 11 1005.9 1005.4 0.8
24/09:00am 18.1 17.9 17.6 97 0.3 NNW 15 20 8 11 1006.2 1005.7 11.6
24/08:30am 19.1 17.8 17.2 89 1.2 NNW 20 28 11 15 1005.9 1005.4 10.2
24/08:00am 18.5 17.2 17.3 93 0.7 NNW 20 26 11 14 1005.8 1005.3 10.2
24/07:30am 18.3 18.3 17.3 94 0.6 N 13 20 7 11 1005.5 1005.0 10.2
24/07:00am 17.4 18.0 16.9 97 0.3 NNW 9 15 5 8 1005.2 1004.7 10.2
24/06:30am 17.1 17.5 16.3 95 0.5 NNW 9 13 5 7 1005.0 1004.4 10.2
24/06:00am 17.5 19.0 16.7 95 0.5 NW 4 7 2 4 1005.0 1004.4 10.2
24/05:30am 17.5 17.7 16.7 95 0.5 NNW 11 17 6 9 1005.0 1004.4 10.2
24/05:00am 17.7 18.4 17.1 96 0.4 NNW 9 17 5 9 1005.1 1004.5 10.2
24/04:30am 17.0 17.9 16.7 98 0.2 NW 7 11 4 6 1005.4 1004.9 10.2
24/04:00am 17.0 18.1 16.5 97 0.3 NW 6 9 3 5 1005.5 1005.0 10.2
24/03:30am 17.3 17.9 16.8 97 0.3 NNW 9 17 5 9 1005.8 1005.3 10.2
24/03:00am 17.2 17.1 17.0 99 0.1 N 13 17 7 9 1006.0 1005.5 10.2
24/02:30am 17.0 17.6 16.8 99 0.1 NNE 9 11 5 6 1006.5 1005.9 10.2
24/02:00am 16.9 17.8 16.7 99 0.1 NNW 7 9 4 5 1007.5 1006.9 10.2
24/01:30am 17.1 17.7 16.9 99 0.1 NNE 9 13 5 7 1007.8 1007.2 10.2
24/01:00am 17.2 17.9 17.0 99 0.1 ENE 9 13 5 7 1008.0 1007.4 10.2
24/12:30am 17.3 17.0 17.3 100 0.0 ENE 15 20 8 11 1008.7 1008.2 9.4
24/12:00am 17.4 18.5 17.2 99 0.1 NNE 7 9 4 5 1009.0 1008.5 8.4
 
Date/Time
EDT
Temp
°C
App
Temp
°C
Dew
Point
°C
Rel
Hum
%
Delta-T
°C
Wind Press
QNH
hPa
Press
MSL
hPa
Rain since
9am
mm
Dir  Spd
km/h
Gust
km/h
Spd
kts
Gust
kts
23/11:30pm 17.5 17.2 17.3 99 0.1 E 15 20 8 11 1008.2 1007.7 7.6
23/11:00pm 17.6 18.8 17.4 99 0.1 NE 7 9 4 5 1009.1 1008.6 6.0
23/10:30pm 17.8 19.0 16.8 94 0.6 W 6 9 3 5 1009.4 1008.9 3.2
23/10:00pm 18.5 17.0 16.8 90 1.0 W 20 35 11 19 1008.9 1008.4 1.0
23/09:30pm 18.0 19.0 16.9 93 0.7 S 7 11 4 6 1007.5 1006.9 0.8
23/09:00pm 18.1 19.1 16.8 92 0.8 SSW 7 9 4 5 1007.6 1007.0 0.6
23/08:30pm 18.2 18.6 16.4 89 1.1 SSW 9 13 5 7 1007.3 1006.7 0.6
23/08:00pm 18.7 19.5 16.3 86 1.5 S 7 11 4 6 1007.5 1006.9 0.6
23/07:30pm 19.3 20.4 17.1 87 1.4 SW 7 11 4 6 1007.7 1007.1 0.4
23/07:00pm 20.2 19.3 15.8 76 2.7 WSW 15 28 8 15 1008.0 1007.4 0.2
23/06:30pm 20.4 20.4 16.2 77 2.6 NE 11 15 6 8 1007.5 1006.9 0.2
23/06:00pm 20.4 19.1 15.8 75 2.8 NNW 17 22 9 12 1007.7 1007.1 0.2
23/05:30pm 23.9 21.7 14.3 55 5.7 NNW 19 32 10 17 1007.4 1006.8 0.0
23/05:00pm 27.7 24.6 11.7 37 9.3 N 19 24 10 13 1006.9 1006.3 0.0
23/04:30pm 28.0 25.4 12.0 37 9.4 N 17 24 9 13 1007.1 1006.5 0.0
23/04:00pm 28.7 24.9 11.3 34 10.1 N 22 39 12 21 1007.4 1006.8 0.0
23/03:30pm 29.4 25.9 12.3 34 10.1 N 22 37 12 20 1007.9 1007.3 0.0
23/03:00pm 29.3 25.7 11.8 34 10.3 N 22 33 12 18 1008.6 1008.1 0.0
23/02:30pm 29.6 26.1 12.1 34 10.3 N 22 35 12 19 1009.4 1008.9 0.0
23/02:00pm 29.6 26.7 12.9 35 10.0 N 20 28 11 15 1009.8 1009.3 0.0
23/01:30pm 28.1 25.1 12.5 38 9.2 NNE 20 32 11 17 1010.1 1009.5 0.0

Other formats

Comma delimited format used in spreadsheet applications
http://www.bom.gov.au/fwo/IDN60801/IDN60801.95721.axf

JavaScript Object Notation format (JSON) in row-major order
http://www.bom.gov.au/fwo/IDN60801/IDN60801.95721.json

Data quality

Most of these data are generated automatically and are frequently updated. Quality checks on data are not normally performed. It is possible for incorrect values to appear. Refer to information at About Latest Weather Observations and please check the disclaimer before using these data.